createdAt,value
2023-01-05T00:01:11.701Z,17.33
2023-01-05T00:03:39.061Z,14.82
2023-01-05T00:06:11.429Z,16.17
2023-01-05T00:08:38.900Z,15.95
2023-01-05T00:11:45.046Z,16.65
2023-01-05T00:14:35.894Z,16.73
2023-01-05T00:17:21.379Z,17.88
2023-01-05T00:20:07.034Z,16.77
2023-01-05T00:22:39.041Z,16.20
2023-01-05T00:25:13.777Z,17.35
2023-01-05T00:27:42.481Z,18.08
2023-01-05T00:30:12.008Z,16.65
2023-01-05T00:32:39.142Z,17.67
2023-01-05T00:35:06.188Z,17.08
2023-01-05T00:37:35.610Z,17.20
2023-01-05T00:40:02.484Z,16.25
2023-01-05T00:42:29.562Z,15.60
2023-01-05T00:44:56.458Z,16.65
2023-01-05T00:47:23.356Z,15.02
2023-01-05T00:49:50.279Z,15.98
2023-01-05T00:52:17.444Z,14.50
2023-01-05T00:54:44.291Z,15.45
2023-01-05T00:57:12.374Z,16.75
2023-01-05T00:59:39.811Z,15.75
2023-01-05T01:02:07.238Z,14.43
2023-01-05T01:04:34.981Z,14.10
2023-01-05T01:07:04.504Z,16.15
2023-01-05T01:09:31.546Z,16.20
2023-01-05T01:11:58.569Z,14.30
2023-01-05T01:14:25.952Z,13.98
2023-01-05T01:16:52.827Z,14.02
2023-01-05T01:19:25.157Z,15.55
2023-01-05T01:21:52.188Z,14.57
2023-01-05T01:24:25.965Z,15.57
2023-01-05T01:26:54.115Z,14.10
2023-01-05T01:29:21.993Z,14.75
2023-01-05T01:31:50.347Z,14.05
2023-01-05T01:34:17.744Z,14.80
2023-01-05T01:36:45.080Z,14.05
2023-01-05T01:39:13.549Z,14.27
2023-01-05T01:41:43.832Z,14.35
2023-01-05T01:44:48.928Z,14.93
2023-01-05T01:47:20.188Z,13.73
2023-01-05T01:49:47.626Z,15.57
2023-01-05T01:52:15.322Z,14.13
2023-01-05T01:54:42.813Z,14.82
2023-01-05T01:57:11.840Z,14.23
2023-01-05T01:59:39.573Z,16.08
2023-01-05T02:02:07.972Z,14.52
2023-01-05T02:04:37.681Z,14.60
2023-01-05T02:07:07.491Z,15.40
2023-01-05T02:09:35.053Z,15.00
2023-01-05T02:12:09.307Z,15.13
2023-01-05T02:15:00.249Z,16.60
2023-01-05T02:17:58.758Z,17.70
2023-01-05T02:20:48.010Z,17.38
2023-01-05T02:23:36.029Z,19.65
2023-01-05T02:26:41.256Z,23.15
2023-01-05T02:29:11.185Z,23.30
2023-01-05T02:31:58.204Z,26.42
2023-01-05T02:34:58.519Z,28.23
2023-01-05T02:37:34.788Z,32.65
2023-01-05T02:40:21.146Z,30.30
2023-01-05T02:42:53.220Z,30.75
2023-01-05T02:45:23.369Z,28.38
2023-01-05T02:47:55.233Z,23.90
2023-01-05T02:50:41.336Z,23.75
2023-01-05T02:53:29.894Z,22.48
2023-01-05T02:56:05.115Z,22.83
2023-01-05T02:58:41.855Z,24.98
2023-01-05T03:01:17.499Z,22.95
2023-01-05T03:03:58.757Z,22.77
2023-01-05T03:06:33.884Z,24.05
2023-01-05T03:09:05.030Z,24.25
2023-01-05T03:12:19.458Z,24.10
2023-01-05T03:27:09.954Z,25.17
2023-01-05T03:29:56.016Z,26.15
2023-01-05T03:32:45.870Z,26.38
2023-01-05T03:35:38.542Z,24.10
2023-01-05T03:38:40.532Z,24.90
2023-01-05T03:41:12.723Z,25.75
2023-01-05T03:43:43.214Z,24.15
2023-01-05T03:46:14.154Z,23.05
2023-01-05T03:48:43.496Z,25.23
2023-01-05T03:51:10.558Z,27.25
2023-01-05T03:53:40.062Z,25.27
2023-01-05T03:56:07.878Z,26.50
2023-01-05T03:58:35.228Z,28.63
2023-01-05T04:01:02.357Z,29.13
2023-01-05T04:03:32.268Z,33.72
2023-01-05T04:06:03.277Z,30.05
2023-01-05T04:08:32.440Z,29.65
2023-01-05T04:11:18.034Z,30.40
2023-01-05T04:13:53.365Z,32.72
2023-01-05T04:16:21.469Z,31.50
2023-01-05T04:18:50.280Z,32.50
2023-01-05T04:21:19.598Z,29.25
2023-01-05T04:23:48.527Z,29.52
2023-01-05T04:26:17.034Z,29.13
2023-01-05T04:28:49.565Z,29.60
2023-01-05T04:31:18.922Z,29.10
2023-01-05T04:33:46.029Z,27.15
2023-01-05T04:36:17.743Z,27.48
2023-01-05T04:38:46.192Z,26.98
2023-01-05T04:41:13.767Z,26.58
2023-01-05T04:43:44.511Z,25.65
2023-01-05T04:46:12.878Z,25.35
2023-01-05T04:48:39.771Z,26.10
2023-01-05T04:51:07.692Z,27.83
2023-01-05T04:53:37.640Z,33.88
2023-01-05T04:56:06.727Z,32.25
2023-01-05T04:58:41.047Z,32.10
2023-01-05T05:01:08.301Z,30.20
2023-01-05T05:03:36.981Z,34.58
2023-01-05T05:06:07.062Z,33.22
2023-01-05T05:08:33.951Z,30.17
2023-01-05T05:11:02.978Z,27.85
2023-01-05T05:13:33.008Z,28.88
2023-01-05T05:16:01.267Z,27.42
2023-01-05T05:18:29.712Z,27.70
2023-01-05T05:20:56.591Z,27.52
2023-01-05T05:23:29.078Z,29.15
2023-01-05T05:25:57.382Z,28.50
2023-01-05T05:28:28.371Z,27.95
2023-01-05T05:30:59.311Z,29.08
2023-01-05T05:33:29.635Z,26.17
2023-01-05T05:35:56.593Z,26.50
2023-01-05T05:38:23.563Z,27.48
2023-01-05T05:40:50.625Z,29.90
2023-01-05T05:43:17.658Z,29.55
2023-01-05T05:45:49.953Z,29.15
2023-01-05T05:48:18.415Z,30.50
2023-01-05T05:50:45.930Z,31.65
2023-01-05T05:53:13.054Z,28.33
2023-01-05T05:55:39.971Z,27.30
2023-01-05T05:58:07.084Z,29.10
2023-01-05T06:00:34.254Z,28.98
2023-01-05T06:03:01.292Z,28.58
2023-01-05T06:05:28.447Z,30.95
2023-01-05T06:07:55.228Z,26.70
2023-01-05T06:10:22.120Z,29.27
2023-01-05T06:12:49.128Z,29.95
2023-01-05T06:15:16.134Z,29.67
2023-01-05T06:17:43.020Z,27.90
2023-01-05T06:20:10.250Z,30.05
2023-01-05T06:22:37.327Z,29.17
2023-01-05T06:25:05.278Z,28.95
2023-01-05T06:27:32.699Z,30.83
2023-01-05T06:29:59.659Z,33.22
2023-01-05T06:32:26.525Z,29.65
2023-01-05T06:34:53.396Z,28.75
2023-01-05T06:37:20.412Z,29.05
2023-01-05T06:39:47.234Z,29.60
2023-01-05T06:42:14.965Z,30.38
2023-01-05T06:44:43.846Z,29.27
2023-01-05T06:47:10.721Z,27.23
2023-01-05T06:49:37.530Z,26.85
2023-01-05T06:52:04.792Z,27.15
2023-01-05T06:54:31.563Z,24.45
2023-01-05T06:56:58.491Z,24.92
2023-01-05T06:59:25.372Z,24.88
2023-01-05T07:01:52.361Z,22.73
2023-01-05T07:04:19.604Z,24.88
2023-01-05T07:06:46.723Z,26.25
2023-01-05T07:09:13.653Z,23.27
2023-01-05T07:11:40.498Z,24.98
2023-01-05T07:14:07.366Z,22.42
2023-01-05T07:16:34.206Z,23.65
2023-01-05T07:19:01.144Z,23.42
2023-01-05T07:21:28.085Z,23.25
2023-01-05T07:23:55.005Z,20.65
2023-01-05T07:26:22.012Z,21.15
2023-01-05T07:28:48.907Z,20.80
2023-01-05T07:31:15.957Z,20.42
2023-01-05T07:33:42.881Z,18.65
2023-01-05T07:36:10.045Z,20.25
2023-01-05T07:38:36.928Z,18.45
2023-01-05T07:41:04.208Z,18.83
2023-01-05T07:43:31.180Z,18.60
2023-01-05T07:46:02.467Z,18.15
2023-01-05T07:48:29.557Z,17.92
2023-01-05T07:51:04.653Z,17.38
2023-01-05T07:53:38.105Z,18.42
2023-01-05T07:56:12.007Z,18.95
2023-01-05T07:58:39.083Z,19.85
2023-01-05T08:01:12.377Z,18.33
2023-01-05T08:03:39.848Z,17.60
2023-01-05T08:06:09.088Z,18.30
2023-01-05T08:08:36.421Z,18.65
2023-01-05T08:11:09.544Z,16.95
2023-01-05T08:13:55.361Z,17.53
2023-01-05T08:16:22.932Z,17.52
2023-01-05T08:18:49.861Z,17.75
2023-01-05T08:21:16.832Z,18.35
2023-01-05T08:23:45.886Z,14.93
2023-01-05T08:26:15.827Z,15.88
2023-01-05T08:28:43.209Z,14.80
2023-01-05T08:31:17.947Z,16.30
2023-01-05T08:33:45.382Z,16.08
2023-01-05T08:36:15.561Z,16.95
2023-01-05T08:38:48.321Z,14.65
2023-01-05T08:41:17.949Z,16.45
2023-01-05T08:43:44.863Z,16.30
2023-01-05T08:46:11.793Z,14.55
2023-01-05T08:48:38.673Z,16.73
2023-01-05T08:51:07.537Z,16.45
2023-01-05T08:53:34.948Z,18.08
2023-01-05T08:56:02.653Z,16.85
2023-01-05T08:58:29.690Z,15.63
2023-01-05T09:00:56.686Z,14.10
2023-01-05T09:03:23.705Z,13.73
2023-01-05T09:05:54.465Z,13.00
2023-01-05T09:08:21.368Z,12.50
2023-01-05T09:10:48.281Z,12.70
2023-01-05T09:13:17.185Z,11.90
2023-01-05T09:15:44.167Z,12.85
2023-01-05T09:18:11.118Z,13.18
2023-01-05T09:20:42.544Z,13.23
2023-01-05T09:23:09.392Z,12.15
2023-01-05T09:25:38.903Z,13.32
2023-01-05T09:28:05.772Z,14.50
2023-01-05T09:30:40.985Z,13.80
2023-01-05T09:33:09.085Z,13.18
2023-01-05T09:35:35.886Z,15.77
2023-01-05T09:38:02.749Z,13.88
2023-01-05T09:40:35.132Z,12.40
2023-01-05T09:43:02.156Z,13.40
2023-01-05T09:45:29.213Z,13.00
2023-01-05T09:47:59.341Z,13.43
2023-01-05T09:50:31.052Z,13.32
2023-01-05T09:53:00.219Z,13.00
2023-01-05T09:55:30.749Z,11.88
2023-01-05T09:58:27.926Z,12.13
2023-01-05T10:01:07.622Z,11.05
2023-01-05T10:04:03.996Z,12.88
2023-01-05T10:06:34.687Z,11.63
2023-01-05T10:09:04.418Z,10.40
2023-01-05T10:12:03.566Z,10.90
2023-01-05T10:14:53.063Z,10.63
2023-01-05T10:20:14.263Z,12.18
2023-01-05T10:22:57.974Z,11.77
2023-01-05T10:25:48.911Z,12.35
2023-01-05T10:28:25.131Z,11.43
2023-01-05T10:31:03.041Z,11.88
2023-01-05T10:34:05.932Z,9.57
2023-01-05T10:37:09.485Z,10.50
2023-01-05T10:39:56.674Z,11.57
2023-01-05T10:42:46.438Z,10.05
2023-01-05T10:45:19.741Z,10.45
2023-01-05T10:47:49.455Z,11.80
2023-01-05T10:50:22.596Z,12.48
2023-01-05T10:52:49.721Z,12.10
2023-01-05T10:55:19.075Z,11.07
2023-01-05T10:57:46.931Z,12.20
2023-01-05T11:00:21.297Z,11.55
2023-01-05T11:03:03.230Z,14.10
2023-01-05T11:05:37.192Z,11.60
2023-01-05T11:08:25.810Z,12.07
2023-01-05T11:11:07.816Z,11.10
2023-01-05T11:13:46.598Z,12.13
2023-01-05T11:16:16.550Z,11.48
2023-01-05T11:18:55.385Z,11.85
2023-01-05T11:21:29.081Z,11.55
2023-01-05T11:23:59.004Z,11.85
2023-01-05T11:26:28.186Z,12.80
2023-01-05T11:29:10.285Z,11.43
2023-01-05T11:32:02.306Z,10.52
2023-01-05T11:34:31.274Z,11.77
2023-01-05T11:37:08.108Z,10.30
2023-01-05T11:39:47.403Z,11.70
2023-01-05T11:42:29.640Z,12.88
2023-01-05T11:45:08.211Z,12.10
2023-01-05T11:47:46.421Z,11.50
2023-01-05T11:50:13.336Z,12.75
2023-01-05T11:52:46.945Z,10.75
2023-01-05T11:55:19.970Z,12.32
2023-01-05T11:57:50.527Z,12.75
2023-01-05T12:00:32.572Z,11.10
2023-01-05T12:03:30.420Z,11.60
2023-01-05T12:06:04.440Z,12.13
2023-01-05T12:08:41.922Z,11.02
2023-01-05T12:11:19.308Z,10.45
2023-01-05T12:14:07.489Z,10.82
2023-01-05T12:16:37.193Z,10.85
2023-01-05T12:19:32.977Z,11.30
2023-01-05T12:22:05.877Z,13.35
2023-01-05T12:25:09.895Z,12.18
2023-01-05T12:27:51.322Z,13.18
2023-01-05T12:36:21.677Z,12.65
2023-01-05T12:42:09.929Z,14.52
2023-01-05T12:44:51.405Z,12.70
2023-01-05T12:47:39.879Z,13.75
2023-01-05T12:50:37.730Z,12.65
2023-01-05T12:53:26.257Z,12.65
2023-01-05T12:56:00.945Z,12.75
2023-01-05T12:58:34.998Z,13.27
2023-01-05T13:01:05.943Z,12.85
2023-01-05T13:04:17.586Z,12.23
2023-01-05T13:06:52.090Z,13.35
2023-01-05T13:09:23.065Z,13.10
2023-01-05T13:11:59.495Z,13.32
2023-01-05T13:14:31.062Z,12.88
2023-01-05T13:17:10.452Z,13.48
2023-01-05T13:19:44.978Z,13.32
2023-01-05T13:22:28.639Z,15.10
2023-01-05T13:25:01.081Z,13.53
2023-01-05T13:27:29.815Z,15.48
2023-01-05T13:29:59.813Z,13.43
2023-01-05T13:32:57.655Z,13.68
2023-01-05T13:35:49.377Z,13.52
2023-01-05T13:38:37.885Z,13.20
2023-01-05T13:41:19.231Z,12.60
2023-01-05T13:43:49.093Z,12.27
2023-01-05T13:47:03.537Z,13.50
2023-01-05T13:49:51.867Z,13.05
2023-01-05T13:52:24.634Z,14.02
2023-01-05T13:55:01.969Z,13.77
2023-01-05T13:57:37.854Z,13.88
2023-01-05T14:00:12.420Z,12.73
2023-01-05T14:02:43.391Z,14.13
2023-01-05T14:05:25.928Z,13.98
2023-01-05T14:07:55.494Z,15.18
2023-01-05T14:10:28.994Z,14.40
2023-01-05T14:12:56.689Z,16.27
2023-01-05T14:15:32.694Z,14.00
2023-01-05T14:18:04.145Z,14.73
2023-01-05T14:20:39.882Z,19.35
2023-01-05T14:23:29.848Z,16.42
2023-01-05T14:26:00.871Z,18.77
2023-01-05T14:28:30.821Z,14.82
2023-01-05T14:31:19.030Z,15.98
2023-01-05T14:34:03.693Z,15.77
2023-01-05T14:39:20.198Z,16.00
2023-01-05T14:41:59.303Z,15.80
2023-01-05T14:44:36.061Z,16.58
2023-01-05T14:47:04.653Z,16.55
2023-01-05T14:49:55.191Z,16.92
2023-01-05T14:52:59.038Z,17.55
2023-01-05T14:55:39.601Z,19.70
2023-01-05T14:58:36.197Z,20.50
2023-01-05T15:03:53.493Z,18.50
2023-01-05T15:07:08.545Z,16.83
2023-01-05T15:09:54.140Z,19.45
2023-01-05T15:12:39.832Z,15.52
2023-01-05T15:29:27.560Z,22.23
2023-01-05T15:32:18.508Z,22.67
2023-01-05T15:34:52.906Z,23.95
2023-01-05T15:39:56.679Z,23.67
2023-01-05T15:42:34.524Z,23.65
2023-01-05T15:45:01.804Z,23.27
2023-01-05T15:47:30.112Z,24.58
2023-01-05T15:50:00.053Z,21.73
2023-01-05T15:52:38.088Z,20.90
2023-01-05T15:55:10.690Z,20.73
2023-01-05T15:57:37.594Z,20.77
2023-01-05T16:00:18.179Z,19.60
2023-01-05T16:02:45.186Z,19.08
2023-01-05T16:05:18.335Z,19.65
2023-01-05T16:07:47.312Z,19.92
2023-01-05T16:10:24.038Z,20.85
2023-01-05T16:12:57.181Z,21.92
2023-01-05T16:15:26.213Z,21.52
2023-01-05T16:17:56.936Z,23.13
2023-01-05T16:20:26.026Z,22.90
2023-01-05T16:23:22.003Z,21.98
2023-01-05T16:25:59.407Z,24.42
2023-01-05T16:28:26.954Z,23.52
2023-01-05T16:30:55.138Z,24.33
2023-01-05T16:33:36.015Z,27.50
2023-01-05T16:36:13.368Z,27.17
2023-01-05T16:38:41.160Z,27.48
2023-01-05T16:41:54.363Z,28.48
2023-01-05T16:44:21.237Z,29.63
2023-01-05T16:47:04.827Z,31.92
2023-01-05T16:49:43.595Z,33.40
2023-01-05T16:52:23.941Z,35.78
2023-01-05T16:55:35.799Z,35.38
2023-01-05T16:58:24.402Z,34.70
2023-01-05T17:00:51.468Z,32.83
2023-01-05T17:03:31.514Z,33.10
2023-01-05T17:06:00.653Z,32.50
2023-01-05T17:08:31.836Z,33.85
2023-01-05T17:11:00.571Z,31.70
2023-01-05T17:13:37.623Z,34.22
2023-01-05T17:16:06.004Z,32.80
2023-01-05T17:18:32.828Z,32.45
2023-01-05T17:21:00.936Z,33.90
2023-01-05T17:23:31.416Z,33.97
2023-01-05T17:26:03.477Z,34.03
2023-01-05T17:28:30.488Z,34.20
2023-01-05T17:30:57.477Z,36.63
2023-01-05T17:33:24.433Z,35.58
2023-01-05T17:35:51.596Z,36.15
2023-01-05T17:38:18.658Z,37.10
2023-01-05T17:40:45.469Z,37.22
2023-01-05T17:43:12.426Z,35.92
2023-01-05T17:45:44.102Z,35.65
2023-01-05T17:50:45.011Z,31.90
2023-01-05T17:53:11.987Z,30.38
2023-01-05T17:55:41.474Z,29.70
2023-01-05T17:58:09.256Z,30.58
2023-01-05T18:00:39.829Z,32.65
2023-01-05T18:03:06.761Z,34.92
2023-01-05T18:05:33.652Z,31.80
2023-01-05T18:08:00.594Z,30.88
2023-01-05T18:10:29.328Z,31.08
2023-01-05T18:12:56.925Z,29.17
2023-01-05T18:15:24.032Z,25.63
2023-01-05T18:17:50.916Z,25.25
2023-01-05T18:20:19.972Z,23.35
2023-01-05T18:22:48.719Z,22.58
2023-01-05T18:25:16.152Z,24.77
2023-01-05T18:27:43.461Z,22.95
2023-01-05T18:30:12.133Z,24.73
2023-01-05T18:32:39.485Z,24.77
2023-01-05T18:35:10.000Z,22.67
2023-01-05T18:37:38.844Z,20.33
2023-01-05T18:40:06.681Z,20.58
2023-01-05T18:42:33.623Z,21.35
2023-01-05T18:45:08.949Z,22.38
2023-01-05T18:47:49.297Z,20.92
2023-01-05T18:50:16.650Z,21.33
2023-01-05T18:52:43.517Z,23.88
2023-01-05T18:55:11.310Z,23.30
2023-01-05T18:57:38.239Z,23.23
2023-01-05T19:00:06.178Z,22.48
2023-01-05T19:02:33.092Z,23.20
2023-01-05T19:05:00.069Z,24.08
2023-01-05T19:07:27.615Z,23.92
2023-01-05T19:09:54.556Z,24.50
2023-01-05T19:12:21.456Z,26.83
2023-01-05T19:14:48.415Z,26.50
2023-01-05T19:17:15.269Z,28.55
2023-01-05T19:19:42.275Z,31.55
2023-01-05T19:22:09.142Z,30.60
2023-01-05T19:24:38.410Z,31.52
2023-01-05T19:27:05.405Z,28.67
2023-01-05T19:29:32.277Z,29.95
2023-01-05T19:31:59.119Z,27.63
2023-01-05T19:34:26.069Z,26.85
2023-01-05T19:36:52.966Z,27.60
2023-01-05T19:39:21.966Z,27.48
2023-01-05T19:41:51.511Z,29.27
2023-01-05T19:44:21.324Z,27.30
2023-01-05T19:46:54.667Z,26.65
2023-01-05T19:49:27.139Z,29.77
2023-01-05T19:51:54.518Z,27.50
2023-01-05T19:54:22.673Z,30.80
2023-01-05T19:56:49.658Z,34.28
2023-01-05T19:59:19.354Z,34.42
2023-01-05T20:01:46.363Z,37.35
2023-01-05T20:04:14.080Z,31.85
2023-01-05T20:06:44.506Z,36.10
2023-01-05T20:09:17.547Z,33.92
2023-01-05T20:11:59.386Z,32.95
2023-01-05T20:14:32.966Z,32.40
2023-01-05T20:17:04.100Z,33.67
2023-01-05T20:19:32.476Z,30.17
2023-01-05T20:22:01.167Z,30.15
2023-01-05T20:24:31.169Z,28.33
2023-01-05T20:27:01.389Z,27.27
2023-01-05T20:29:29.290Z,25.35
2023-01-05T20:31:59.526Z,25.20
2023-01-05T20:34:31.877Z,24.85
2023-01-05T20:37:00.299Z,25.23
2023-01-05T20:39:27.235Z,26.23
2023-01-05T20:41:54.994Z,29.75
2023-01-05T20:44:25.589Z,26.63
2023-01-05T20:46:54.262Z,26.50
2023-01-05T20:49:22.136Z,27.08
2023-01-05T20:51:49.632Z,26.25
2023-01-05T20:54:16.553Z,29.08
2023-01-05T20:56:46.245Z,27.77
2023-01-05T20:59:26.549Z,28.13
2023-01-05T21:01:56.653Z,28.13
2023-01-05T21:04:25.291Z,26.58
2023-01-05T21:06:54.428Z,27.60
2023-01-05T21:09:25.600Z,27.23
2023-01-05T21:11:52.484Z,24.05
2023-01-05T21:14:20.107Z,19.98
2023-01-05T21:16:53.004Z,16.60
2023-01-05T21:19:23.206Z,14.48
2023-01-05T21:21:53.961Z,12.40
2023-01-05T21:24:21.529Z,9.77
2023-01-05T21:26:50.868Z,7.95
2023-01-05T21:29:20.425Z,8.82
2023-01-05T21:31:47.981Z,7.53
2023-01-05T21:34:15.431Z,8.70
2023-01-05T21:36:45.371Z,8.15
2023-01-05T21:39:22.099Z,7.75
2023-01-05T21:42:08.778Z,7.05
2023-01-05T21:44:36.347Z,6.43
2023-01-05T21:47:05.843Z,7.00
2023-01-05T21:49:36.585Z,6.72
2023-01-05T21:52:23.140Z,7.30
2023-01-05T21:55:08.577Z,6.50
2023-01-05T21:57:35.417Z,7.10
2023-01-05T22:00:03.036Z,6.70
2023-01-05T22:02:31.901Z,6.68
2023-01-05T22:04:58.708Z,6.55
2023-01-05T22:07:25.568Z,5.55
2023-01-05T22:09:52.485Z,6.25
2023-01-05T22:12:19.383Z,5.57
2023-01-05T22:14:46.337Z,5.45
2023-01-05T22:17:13.329Z,5.22
2023-01-05T22:19:40.095Z,5.95
2023-01-05T22:22:07.191Z,5.43
2023-01-05T22:24:34.011Z,5.20
2023-01-05T22:27:00.908Z,4.63
2023-01-05T22:29:27.840Z,4.53
2023-01-05T22:31:54.844Z,4.53
2023-01-05T22:34:21.791Z,4.80
2023-01-05T22:36:49.249Z,3.88
2023-01-05T22:39:16.662Z,4.38
2023-01-05T22:41:43.606Z,4.03
2023-01-05T22:44:10.458Z,4.20
2023-01-05T22:46:38.920Z,4.07
2023-01-05T22:49:06.066Z,3.95
2023-01-05T22:51:36.021Z,4.32
2023-01-05T22:54:04.430Z,3.40
2023-01-05T22:56:32.769Z,3.08
2023-01-05T22:59:00.121Z,3.72
2023-01-05T23:01:31.381Z,3.55
2023-01-05T23:04:00.447Z,3.60
2023-01-05T23:06:28.316Z,4.50
2023-01-05T23:08:55.926Z,3.72
2023-01-05T23:11:31.361Z,3.60
2023-01-05T23:14:00.218Z,4.13
2023-01-05T23:16:27.998Z,4.20
2023-01-05T23:18:55.437Z,4.22
2023-01-05T23:21:24.400Z,4.18
2023-01-05T23:23:52.555Z,4.20
2023-01-05T23:26:20.442Z,4.68
2023-01-05T23:28:48.127Z,4.53
2023-01-05T23:31:16.480Z,3.58
2023-01-05T23:33:44.081Z,4.25
2023-01-05T23:36:12.768Z,4.35
2023-01-05T23:38:40.195Z,3.83
2023-01-05T23:41:08.701Z,5.03
2023-01-05T23:43:38.009Z,3.60
2023-01-05T23:46:17.730Z,4.75
2023-01-05T23:48:44.660Z,4.25
2023-01-05T23:51:17.121Z,3.90
2023-01-05T23:53:49.180Z,4.70
2023-01-05T23:56:19.524Z,4.47
2023-01-05T23:58:47.444Z,4.07
